createdAt,value
2018-05-03T00:00:45.605Z,66.81
2018-05-03T00:03:13.176Z,67.24
2018-05-03T00:05:41.005Z,67.24
2018-05-03T00:08:08.568Z,66.89
2018-05-03T00:10:36.329Z,67.03
2018-05-03T00:13:03.904Z,67.31
2018-05-03T00:15:31.568Z,67.28
2018-05-03T00:17:59.193Z,67.44
2018-05-03T00:20:26.753Z,67.73
2018-05-03T00:22:54.532Z,67.98
2018-05-03T00:25:22.095Z,68.47
2018-05-03T00:27:49.660Z,68.83
2018-05-03T00:30:17.488Z,68.93
2018-05-03T00:32:45.048Z,69.36
2018-05-03T00:35:12.657Z,69.75
2018-05-03T00:37:40.441Z,69.67
2018-05-03T00:40:08.036Z,69.65
2018-05-03T00:42:35.604Z,69.82
2018-05-03T00:45:03.165Z,69.63
2018-05-03T00:47:30.724Z,69.69
2018-05-03T00:49:58.281Z,69.89
2018-05-03T00:52:25.893Z,69.83
2018-05-03T00:54:53.444Z,69.99
2018-05-03T00:57:20.995Z,69.89
2018-05-03T00:59:48.591Z,69.63
2018-05-03T01:02:16.160Z,69.86
2018-05-03T01:04:43.936Z,70.18
2018-05-03T01:07:11.755Z,70.19
2018-05-03T01:09:39.472Z,70.49
2018-05-03T01:12:07.083Z,70.55
2018-05-03T01:14:34.650Z,70.99
2018-05-03T01:17:02.223Z,71.29
2018-05-03T01:19:29.789Z,71.41
2018-05-03T01:21:57.414Z,71.65
2018-05-03T01:24:25.002Z,71.93
2018-05-03T01:26:52.798Z,72.18
2018-05-03T01:29:20.371Z,72.45
2018-05-03T01:31:47.952Z,72.59
2018-05-03T01:34:15.524Z,72.65
2018-05-03T01:36:43.238Z,73.13
2018-05-03T01:39:10.875Z,73.56
2018-05-03T01:41:38.606Z,73.96
2018-05-03T01:44:06.185Z,73.96
2018-05-03T01:46:33.760Z,74.04
2018-05-03T01:49:01.466Z,74.49
2018-05-03T01:51:29.280Z,74.71
2018-05-03T01:53:56.841Z,74.78
2018-05-03T01:56:24.717Z,74.84
2018-05-03T01:58:52.535Z,74.85
2018-05-03T02:01:20.232Z,75.06
2018-05-03T02:03:47.971Z,74.99
2018-05-03T02:06:15.789Z,74.70
2018-05-03T02:08:43.360Z,75.33
2018-05-03T02:11:11.008Z,75.40
2018-05-03T02:13:38.844Z,75.75
2018-05-03T02:16:06.664Z,75.75
2018-05-03T02:18:34.228Z,76.12
2018-05-03T02:21:01.801Z,76.26
2018-05-03T02:23:29.619Z,76.81
2018-05-03T02:25:57.440Z,77.23
2018-05-03T02:28:25.001Z,77.12
2018-05-03T02:30:52.659Z,77.12
2018-05-03T02:33:20.414Z,77.00
2018-05-03T02:35:47.999Z,76.99
2018-05-03T02:38:15.570Z,76.57
2018-05-03T02:40:43.348Z,76.93
2018-05-03T02:43:10.926Z,76.54
2018-05-03T02:45:38.713Z,77.03
2018-05-03T02:48:06.352Z,77.38
2018-05-03T02:50:33.953Z,77.12
2018-05-03T02:53:01.518Z,77.33
2018-05-03T02:55:29.256Z,77.39
2018-05-03T02:58:14.224Z,77.60
2018-05-03T03:00:59.344Z,78.17
2018-05-03T03:03:44.426Z,78.07
2018-05-03T03:06:29.771Z,78.11
2018-05-03T03:09:12.524Z,78.57
2018-05-03T03:11:57.581Z,78.43
2018-05-03T03:14:42.648Z,78.38
2018-05-03T03:17:28.420Z,78.26
2018-05-03T03:20:13.438Z,77.89
2018-05-03T03:28:46.941Z,77.87
2018-05-03T03:31:31.988Z,78.08
2018-05-03T03:34:20.172Z,78.13
2018-05-03T03:37:26.334Z,78.69
2018-05-03T03:40:11.304Z,78.55
2018-05-03T03:45:52.800Z,77.67
2018-05-03T03:48:20.361Z,77.79
2018-05-03T03:50:47.936Z,78.05
2018-05-03T03:53:15.647Z,78.09
2018-05-03T03:55:43.268Z,78.48
2018-05-03T03:58:11.059Z,78.46
2018-05-03T04:00:38.692Z,78.32
2018-05-03T04:03:06.268Z,78.26
2018-05-03T04:05:33.976Z,77.63
2018-05-03T04:08:01.547Z,77.25
2018-05-03T04:10:29.116Z,77.13
2018-05-03T04:12:56.750Z,76.66
2018-05-03T04:15:24.478Z,76.31
2018-05-03T04:18:04.037Z,76.27
2018-05-03T04:20:46.508Z,76.10
2018-05-03T04:23:37.552Z,75.50
2018-05-03T04:26:05.184Z,75.34
2018-05-03T04:28:32.927Z,75.44
2018-05-03T04:31:00.666Z,75.95
2018-05-03T04:33:28.251Z,75.78
2018-05-03T04:35:55.881Z,75.38
2018-05-03T04:38:23.448Z,75.23
2018-05-03T04:40:51.063Z,75.35
2018-05-03T04:43:18.663Z,74.17
2018-05-03T04:45:46.541Z,74.17
2018-05-03T04:48:14.108Z,73.57
2018-05-03T04:50:41.908Z,73.33
2018-05-03T04:53:09.728Z,72.95
2018-05-03T04:55:37.306Z,72.68
2018-05-03T04:58:04.881Z,71.94
2018-05-03T05:00:32.680Z,71.83
2018-05-03T05:03:00.288Z,70.94
2018-05-03T05:05:27.849Z,70.65
2018-05-03T05:07:55.635Z,70.38
2018-05-03T05:10:23.249Z,69.96
2018-05-03T05:12:50.813Z,69.79
2018-05-03T05:15:18.589Z,69.57
2018-05-03T05:17:46.409Z,68.72
2018-05-03T05:20:14.029Z,67.65
2018-05-03T05:22:41.755Z,67.12
2018-05-03T05:25:09.323Z,65.46
2018-05-03T05:27:37.081Z,64.42
2018-05-03T05:30:04.693Z,62.85
2018-05-03T05:32:32.282Z,61.19
2018-05-03T05:34:59.844Z,59.45
2018-05-03T05:37:27.485Z,56.32
2018-05-03T05:39:55.084Z,54.44
2018-05-03T05:42:22.651Z,52.70
2018-05-03T05:44:50.232Z,51.96
2018-05-03T05:47:17.809Z,50.03
2018-05-03T05:49:45.523Z,48.60
2018-05-03T05:52:13.260Z,46.81
2018-05-03T05:54:40.877Z,44.89
2018-05-03T05:57:08.459Z,43.00
2018-05-03T05:59:36.064Z,41.83
2018-05-03T06:02:03.749Z,40.93
2018-05-03T06:04:31.335Z,39.46
2018-05-03T06:06:58.921Z,38.72
2018-05-03T06:09:26.461Z,39.08
2018-05-03T06:11:54.068Z,38.43
2018-05-03T06:14:21.792Z,38.27
2018-05-03T06:16:49.344Z,37.32
2018-05-03T06:19:17.049Z,37.52
2018-05-03T06:21:44.616Z,37.32
2018-05-03T06:24:12.209Z,36.06
2018-05-03T06:26:39.903Z,35.53
2018-05-03T06:29:07.530Z,35.01
2018-05-03T06:31:35.348Z,34.62
2018-05-03T06:34:03.128Z,34.16
2018-05-03T06:36:30.766Z,35.09
2018-05-03T06:38:58.416Z,33.91
2018-05-03T06:41:26.029Z,33.92
2018-05-03T06:43:53.601Z,33.78
2018-05-03T06:46:21.233Z,34.59
2018-05-03T06:48:48.857Z,33.59
2018-05-03T06:51:16.416Z,32.43
2018-05-03T06:53:44.001Z,31.94
2018-05-03T06:56:11.560Z,29.92
2018-05-03T06:58:39.245Z,28.99
2018-05-03T07:01:06.917Z,28.80
2018-05-03T07:03:34.596Z,29.78
2018-05-03T07:06:02.249Z,30.72
2018-05-03T07:08:29.805Z,30.02
2018-05-03T07:10:57.411Z,29.48
2018-05-03T07:13:25.040Z,29.98
2018-05-03T07:15:52.662Z,30.74
2018-05-03T07:18:20.283Z,30.33
2018-05-03T07:20:47.979Z,29.04
2018-05-03T07:23:15.628Z,28.13
2018-05-03T07:25:43.192Z,28.54
2018-05-03T07:28:10.817Z,29.10
2018-05-03T07:30:38.362Z,30.28
2018-05-03T07:33:05.917Z,30.99
2018-05-03T07:35:33.717Z,31.92
2018-05-03T07:38:01.279Z,32.04
2018-05-03T07:40:28.845Z,31.48
2018-05-03T07:42:56.480Z,31.09
2018-05-03T07:45:24.174Z,29.64
2018-05-03T07:47:51.753Z,29.69
2018-05-03T07:50:19.324Z,29.98
2018-05-03T07:52:46.894Z,30.86
2018-05-03T07:55:14.478Z,31.20
2018-05-03T07:57:42.076Z,32.22
2018-05-03T08:00:09.639Z,33.53
2018-05-03T08:02:37.392Z,33.93
2018-05-03T08:05:04.990Z,34.41
2018-05-03T08:07:32.642Z,34.29
2018-05-03T08:10:00.293Z,33.90
2018-05-03T08:12:27.938Z,31.73
2018-05-03T08:14:55.600Z,31.45
2018-05-03T08:17:23.161Z,29.61
2018-05-03T08:19:50.773Z,29.89
2018-05-03T08:22:18.430Z,30.18
2018-05-03T08:24:45.978Z,29.66
2018-05-03T08:27:13.554Z,28.79
2018-05-03T08:29:41.160Z,29.30
2018-05-03T08:32:08.743Z,29.52
2018-05-03T08:34:36.385Z,28.91
2018-05-03T08:37:04.057Z,28.29
2018-05-03T08:39:31.670Z,29.62
2018-05-03T08:41:59.227Z,27.88
2018-05-03T08:44:26.911Z,25.83
2018-05-03T08:46:54.738Z,26.79
2018-05-03T08:49:22.468Z,27.16
2018-05-03T08:51:50.035Z,27.54
2018-05-03T08:54:17.646Z,28.18
2018-05-03T08:56:45.416Z,27.97
2018-05-03T08:59:12.990Z,28.65
2018-05-03T09:01:40.556Z,29.40
2018-05-03T09:04:08.156Z,29.13
2018-05-03T09:06:35.780Z,29.04
2018-05-03T09:09:03.403Z,27.71
2018-05-03T09:11:31.016Z,27.41
2018-05-03T09:13:58.581Z,26.38
2018-05-03T09:16:26.163Z,26.94
2018-05-03T09:18:53.975Z,27.29
2018-05-03T09:21:21.676Z,27.69
2018-05-03T09:23:49.305Z,29.32
2018-05-03T09:26:16.938Z,29.77
2018-05-03T09:28:44.546Z,29.31
2018-05-03T09:31:12.097Z,30.40
2018-05-03T09:33:39.955Z,30.36
2018-05-03T09:36:07.514Z,31.52
2018-05-03T09:38:35.086Z,31.01
2018-05-03T09:41:02.822Z,31.90
2018-05-03T09:43:30.398Z,30.92
2018-05-03T09:45:57.984Z,30.91
2018-05-03T09:48:25.609Z,29.54
2018-05-03T09:50:53.153Z,30.18
2018-05-03T09:53:20.887Z,30.91
2018-05-03T09:55:48.456Z,30.66
2018-05-03T09:58:16.082Z,29.92
2018-05-03T10:00:43.652Z,32.43
2018-05-03T10:03:11.359Z,32.14
2018-05-03T10:05:38.928Z,29.71
2018-05-03T10:08:06.733Z,29.16
2018-05-03T10:10:34.326Z,27.83
2018-05-03T10:13:01.899Z,28.37
2018-05-03T10:15:29.687Z,28.09
2018-05-03T10:17:57.506Z,29.23
2018-05-03T10:20:25.109Z,30.20
2018-05-03T10:22:52.707Z,29.74
2018-05-03T10:25:20.462Z,30.10
2018-05-03T10:27:48.056Z,30.63
2018-05-03T10:30:15.698Z,30.28
2018-05-03T10:32:43.248Z,30.35
2018-05-03T10:35:10.811Z,30.18
2018-05-03T10:37:38.428Z,31.54
2018-05-03T10:40:06.008Z,32.34
2018-05-03T10:42:33.631Z,31.05
2018-05-03T10:45:01.295Z,31.85
2018-05-03T10:47:29.121Z,31.32
2018-05-03T10:49:56.716Z,31.68
2018-05-03T10:52:24.350Z,30.53
2018-05-03T10:54:52.181Z,30.62
2018-05-03T10:57:19.920Z,31.23
2018-05-03T10:59:47.444Z,31.25
2018-05-03T11:02:15.112Z,31.50
2018-05-03T11:04:42.850Z,31.78
2018-05-03T11:07:10.479Z,31.83
2018-05-03T11:09:38.057Z,31.54
2018-05-03T11:12:05.645Z,30.36
2018-05-03T11:14:33.277Z,30.43
2018-05-03T11:17:01.039Z,31.05
2018-05-03T11:19:28.615Z,30.15
2018-05-03T11:21:56.192Z,29.50
2018-05-03T11:24:23.745Z,30.23
2018-05-03T11:26:51.376Z,31.36
2018-05-03T11:29:18.946Z,32.67
2018-05-03T11:31:46.575Z,31.90
2018-05-03T11:34:14.252Z,32.15
2018-05-03T11:36:41.824Z,31.89
2018-05-03T11:39:09.400Z,32.48
2018-05-03T11:41:36.958Z,31.42
2018-05-03T11:44:04.529Z,32.00
2018-05-03T11:46:32.066Z,32.24
2018-05-03T11:48:59.871Z,31.72
2018-05-03T11:51:27.468Z,31.41
2018-05-03T11:53:55.098Z,30.69
2018-05-03T11:56:22.925Z,31.96
2018-05-03T11:58:50.489Z,31.04
2018-05-03T12:01:18.057Z,30.65
2018-05-03T12:03:45.749Z,31.18
2018-05-03T12:06:13.372Z,32.02
2018-05-03T12:08:41.004Z,31.71
2018-05-03T12:11:08.700Z,32.44
2018-05-03T12:13:36.416Z,32.44
2018-05-03T12:16:04.002Z,31.54
2018-05-03T12:18:31.695Z,30.25
2018-05-03T12:20:59.252Z,29.98
2018-05-03T12:23:27.084Z,30.72
2018-05-03T12:25:54.648Z,31.07
2018-05-03T12:28:22.243Z,31.79
2018-05-03T12:30:49.824Z,30.36
2018-05-03T12:33:17.387Z,30.91
2018-05-03T12:35:44.939Z,31.14
2018-05-03T12:38:12.737Z,30.00
2018-05-03T12:40:40.360Z,29.89
2018-05-03T12:43:07.911Z,29.80
2018-05-03T12:45:35.489Z,28.86
2018-05-03T12:48:03.048Z,27.43
2018-05-03T12:50:30.607Z,28.38
2018-05-03T12:52:58.229Z,29.98
2018-05-03T12:55:25.803Z,28.29
2018-05-03T12:57:53.475Z,26.30
2018-05-03T13:00:21.293Z,26.26
2018-05-03T13:02:49.113Z,26.58
2018-05-03T13:05:16.932Z,27.46
2018-05-03T13:07:44.492Z,27.32
2018-05-03T13:10:12.267Z,28.17
2018-05-03T13:12:39.853Z,28.20
2018-05-03T13:15:07.585Z,29.19
2018-05-03T13:17:35.142Z,29.46
2018-05-03T13:20:02.697Z,29.61
2018-05-03T13:22:30.283Z,30.39
2018-05-03T13:24:58.078Z,28.60
2018-05-03T13:27:25.856Z,28.99
2018-05-03T13:29:53.574Z,28.21
2018-05-03T13:32:21.432Z,23.25
2018-05-03T13:34:49.254Z,21.95
2018-05-03T13:37:16.832Z,22.27
2018-05-03T13:39:44.382Z,22.01
2018-05-03T13:42:11.995Z,20.30
2018-05-03T13:44:39.822Z,19.89
2018-05-03T13:47:07.389Z,20.68
2018-05-03T13:49:35.020Z,20.38
2018-05-03T13:52:02.592Z,19.95
2018-05-03T13:54:30.169Z,20.55
2018-05-03T13:56:57.747Z,19.85
2018-05-03T13:59:25.314Z,20.38
2018-05-03T14:01:52.900Z,20.03
2018-05-03T14:04:20.480Z,20.34
2018-05-03T14:06:48.100Z,20.72
2018-05-03T14:09:15.756Z,21.03
2018-05-03T14:11:43.341Z,20.93
2018-05-03T14:14:10.944Z,20.91
2018-05-03T14:16:38.506Z,20.55
2018-05-03T14:19:06.365Z,21.11
2018-05-03T14:21:34.082Z,20.84
2018-05-03T14:24:01.702Z,21.08
2018-05-03T14:26:29.347Z,21.16
2018-05-03T14:28:57.163Z,20.88
2018-05-03T14:31:24.729Z,21.06
2018-05-03T14:33:52.367Z,22.29
2018-05-03T14:36:19.933Z,22.37
2018-05-03T14:38:47.549Z,22.33
2018-05-03T14:41:15.185Z,22.56
2018-05-03T14:43:42.864Z,22.92
2018-05-03T14:46:10.434Z,23.50
2018-05-03T14:48:38.207Z,23.35
2018-05-03T14:51:06.013Z,24.17
2018-05-03T14:53:33.748Z,24.53
2018-05-03T14:56:01.304Z,24.94
2018-05-03T14:58:28.938Z,25.07
2018-05-03T15:00:56.526Z,24.91
2018-05-03T15:03:24.096Z,25.68
2018-05-03T15:05:51.672Z,25.35
2018-05-03T15:08:22.560Z,25.77
2018-05-03T15:10:50.128Z,25.51
2018-05-03T15:13:17.777Z,25.45
2018-05-03T15:15:45.619Z,25.90
2018-05-03T15:18:13.298Z,25.91
2018-05-03T15:20:40.844Z,26.45
2018-05-03T15:23:08.428Z,26.38
2018-05-03T15:25:35.988Z,27.02
2018-05-03T15:28:03.588Z,27.33
2018-05-03T15:30:31.164Z,27.41
2018-05-03T15:32:58.834Z,27.15
2018-05-03T15:35:26.661Z,26.68
2018-05-03T15:37:54.248Z,26.82
2018-05-03T15:40:21.815Z,27.30
2018-05-03T15:42:49.380Z,27.47
2018-05-03T15:45:16.947Z,27.18
2018-05-03T15:47:44.754Z,28.03
2018-05-03T15:50:12.384Z,28.04
2018-05-03T15:52:40.187Z,28.45
2018-05-03T15:55:07.788Z,28.77
2018-05-03T15:57:35.363Z,28.74
2018-05-03T16:00:03.214Z,29.34
2018-05-03T16:02:30.815Z,29.67
2018-05-03T16:04:58.393Z,30.07
2018-05-03T16:07:26.083Z,30.33
2018-05-03T16:09:53.818Z,30.46
2018-05-03T16:12:21.533Z,30.60
2018-05-03T16:14:49.352Z,31.07
2018-05-03T16:17:17.070Z,31.16
2018-05-03T16:19:44.644Z,31.58
2018-05-03T16:22:12.205Z,32.06
2018-05-03T16:24:40.024Z,32.38
2018-05-03T16:27:07.667Z,32.34
2018-05-03T16:29:35.460Z,32.91
2018-05-03T16:32:03.382Z,32.91
2018-05-03T16:34:30.995Z,33.24
2018-05-03T16:36:58.613Z,33.55
2018-05-03T16:39:26.334Z,33.49
2018-05-03T16:41:54.152Z,34.19
2018-05-03T16:44:21.720Z,34.24
2018-05-03T16:46:49.348Z,34.49
2018-05-03T16:49:16.927Z,34.98
2018-05-03T16:51:44.553Z,35.55
2018-05-03T16:54:12.142Z,36.54
2018-05-03T16:56:39.716Z,36.92
2018-05-03T16:59:07.290Z,37.50
2018-05-03T17:01:34.874Z,36.65
2018-05-03T17:04:02.479Z,37.00
2018-05-03T17:06:30.145Z,37.50
2018-05-03T17:08:57.735Z,38.10
2018-05-03T17:11:25.292Z,38.86
2018-05-03T17:13:52.933Z,38.88
2018-05-03T17:16:20.889Z,39.10
2018-05-03T17:18:48.457Z,39.62
2018-05-03T17:21:16.241Z,40.01
2018-05-03T17:23:43.858Z,40.64
2018-05-03T17:26:11.428Z,41.06
2018-05-03T17:28:39.046Z,41.28
2018-05-03T17:31:06.699Z,41.47
2018-05-03T17:33:34.261Z,41.39
2018-05-03T17:36:01.848Z,41.42
2018-05-03T17:38:29.426Z,41.21
2018-05-03T17:40:57.074Z,41.22
2018-05-03T17:43:24.720Z,41.12
2018-05-03T17:45:52.289Z,40.87
2018-05-03T17:48:19.852Z,41.03
2018-05-03T17:50:47.404Z,41.79
2018-05-03T17:53:14.988Z,41.94
2018-05-03T17:55:42.552Z,41.22
2018-05-03T17:58:10.168Z,41.27
2018-05-03T18:00:37.732Z,41.65
2018-05-03T18:03:05.431Z,42.29
2018-05-03T18:05:33.050Z,42.78
2018-05-03T18:08:00.616Z,42.49
2018-05-03T18:10:28.290Z,43.18
2018-05-03T18:12:55.941Z,42.86
2018-05-03T18:15:23.556Z,42.83
2018-05-03T18:17:51.129Z,43.60
2018-05-03T18:20:18.788Z,43.31
2018-05-03T18:22:46.416Z,43.54
2018-05-03T18:25:13.987Z,43.80
2018-05-03T18:27:41.616Z,45.90
2018-05-03T18:30:09.176Z,46.07
2018-05-03T18:32:36.858Z,48.27
2018-05-03T18:35:04.507Z,49.22
2018-05-03T18:37:32.074Z,49.18
2018-05-03T18:39:59.673Z,48.95
2018-05-03T18:42:27.235Z,48.58
2018-05-03T18:44:54.876Z,47.44
2018-05-03T18:47:22.432Z,46.25
2018-05-03T18:49:50.054Z,45.74
2018-05-03T18:52:17.658Z,47.07
2018-05-03T18:54:45.280Z,47.33
2018-05-03T18:57:12.836Z,46.12
2018-05-03T18:59:40.437Z,45.79
2018-05-03T19:02:08.178Z,45.86
2018-05-03T19:04:35.786Z,45.71
2018-05-03T19:07:03.512Z,45.73
2018-05-03T19:09:31.134Z,45.94
2018-05-03T19:11:58.746Z,45.87
2018-05-03T19:14:26.360Z,45.80
2018-05-03T19:16:53.941Z,45.75
2018-05-03T19:19:21.560Z,45.41
2018-05-03T19:21:49.181Z,45.57
2018-05-03T19:24:16.801Z,47.01
2018-05-03T19:26:44.380Z,46.42
2018-05-03T19:29:12.212Z,46.38
2018-05-03T19:31:39.872Z,45.79
2018-05-03T19:34:07.619Z,46.59
2018-05-03T19:36:35.329Z,51.65
2018-05-03T19:39:03.123Z,52.86
2018-05-03T19:41:30.753Z,52.67
2018-05-03T19:43:58.392Z,51.61
2018-05-03T19:46:26.409Z,51.42
2018-05-03T19:48:54.042Z,52.57
2018-05-03T19:51:21.623Z,53.56
2018-05-03T19:53:49.293Z,53.42
2018-05-03T19:56:16.966Z,52.77
2018-05-03T19:58:44.621Z,52.44
2018-05-03T20:01:12.200Z,52.90
2018-05-03T20:03:39.768Z,55.79
2018-05-03T20:06:07.393Z,56.15
2018-05-03T20:08:34.957Z,56.43
2018-05-03T20:11:02.913Z,55.49
2018-05-03T20:13:30.600Z,56.17
2018-05-03T20:15:58.174Z,57.50
2018-05-03T20:18:25.818Z,57.57
2018-05-03T20:20:53.437Z,57.23
2018-05-03T20:23:21.014Z,56.94
2018-05-03T20:25:48.661Z,56.74
2018-05-03T20:28:16.280Z,56.46
2018-05-03T20:30:43.849Z,56.38
2018-05-03T20:33:11.421Z,56.60
2018-05-03T20:35:39.000Z,56.80
2018-05-03T20:38:06.884Z,56.57
2018-05-03T20:40:34.525Z,55.56
2018-05-03T20:43:02.153Z,54.58
2018-05-03T20:45:29.845Z,53.60
2018-05-03T20:47:57.439Z,53.30
2018-05-03T20:50:25.101Z,51.78
2018-05-03T20:52:52.858Z,51.50
2018-05-03T20:55:20.447Z,50.96
2018-05-03T20:57:48.048Z,49.84
2018-05-03T21:00:15.734Z,50.09
2018-05-03T21:02:43.441Z,50.94
2018-05-03T21:05:11.008Z,51.37
2018-05-03T21:07:38.577Z,51.76
2018-05-03T21:10:06.221Z,52.17
2018-05-03T21:12:33.857Z,51.92
2018-05-03T21:15:01.486Z,51.92
2018-05-03T21:17:29.052Z,51.92
2018-05-03T21:19:56.684Z,50.99
2018-05-03T21:22:24.494Z,51.48
2018-05-03T21:24:52.093Z,51.32
2018-05-03T21:27:19.665Z,50.16
2018-05-03T21:29:47.339Z,50.47
2018-05-03T21:32:14.905Z,49.61
2018-05-03T21:34:42.470Z,50.13
2018-05-03T21:37:10.144Z,51.22
2018-05-03T21:39:37.795Z,52.95
2018-05-03T21:44:39.288Z,50.90
2018-05-03T21:47:07.276Z,56.89
2018-05-03T21:49:34.901Z,58.38
2018-05-03T21:52:02.484Z,58.60
2018-05-03T21:54:30.108Z,58.13
2018-05-03T21:56:57.680Z,58.54
2018-05-03T21:59:25.310Z,58.72
2018-05-03T22:01:52.888Z,59.08
2018-05-03T22:04:20.480Z,59.29
2018-05-03T22:06:48.097Z,58.93
2018-05-03T22:09:15.763Z,59.80
2018-05-03T22:11:43.320Z,60.21
2018-05-03T22:14:10.965Z,59.92
2018-05-03T22:16:38.678Z,58.90
2018-05-03T22:19:06.537Z,59.89
2018-05-03T22:21:34.108Z,59.83
2018-05-03T22:24:01.718Z,59.27
2018-05-03T22:26:29.377Z,59.40
2018-05-03T22:28:56.936Z,59.83
2018-05-03T22:31:24.822Z,60.13
2018-05-03T22:33:52.384Z,60.15
2018-05-03T22:36:20.101Z,60.26
2018-05-03T22:38:47.663Z,59.31
2018-05-03T22:41:15.226Z,58.81
2018-05-03T22:43:42.807Z,58.63
2018-05-03T22:46:10.427Z,58.71
2018-05-03T22:48:37.990Z,58.65
2018-05-03T22:51:05.861Z,59.22
2018-05-03T22:53:33.478Z,58.99
2018-05-03T22:56:01.096Z,58.95
2018-05-03T22:58:28.814Z,59.32
2018-05-03T23:00:56.641Z,58.89
2018-05-03T23:03:24.223Z,59.55
2018-05-03T23:05:51.874Z,59.44
2018-05-03T23:08:19.441Z,59.16
2018-05-03T23:10:47.316Z,59.44
2018-05-03T23:13:14.875Z,59.33
2018-05-03T23:15:42.452Z,59.33
2018-05-03T23:18:10.335Z,59.55
2018-05-03T23:20:37.932Z,59.80
2018-05-03T23:23:06.236Z,59.50
2018-05-03T23:25:34.024Z,59.58
2018-05-03T23:28:01.640Z,59.87
2018-05-03T23:30:29.294Z,61.17
2018-05-03T23:38:02.309Z,61.04
2018-05-03T23:40:29.942Z,60.51
2018-05-03T23:42:57.513Z,60.00
2018-05-03T23:45:25.093Z,60.21
2018-05-03T23:47:52.660Z,60.56
2018-05-03T23:50:20.294Z,60.87
2018-05-03T23:52:47.873Z,61.64
2018-05-03T23:55:16.272Z,62.36
2018-05-03T23:57:44.097Z,62.59
